createdAt,value
2019-05-25T00:01:05.655Z,2.30
2019-05-25T00:03:34.739Z,2.10
2019-05-25T00:06:03.832Z,2.33
2019-05-25T00:08:32.925Z,2.40
2019-05-25T00:11:02.282Z,2.90
2019-05-25T00:13:31.351Z,2.97
2019-05-25T00:16:00.474Z,2.57
2019-05-25T00:18:30.259Z,3.00
2019-05-25T00:20:59.870Z,3.30
2019-05-25T00:23:29.012Z,8.93
2019-05-25T00:26:01.283Z,3.00
2019-05-25T00:28:30.358Z,4.13
2019-05-25T00:30:59.445Z,3.20
2019-05-25T00:33:28.517Z,3.50
2019-05-25T00:35:57.849Z,2.60
2019-05-25T00:38:26.960Z,2.90
2019-05-25T00:40:58.997Z,3.07
2019-05-25T00:43:28.595Z,2.77
2019-05-25T00:45:58.015Z,2.50
2019-05-25T00:48:27.123Z,2.60
2019-05-25T00:50:56.240Z,2.77
2019-05-25T00:53:25.578Z,2.40
2019-05-25T00:55:58.006Z,2.13
2019-05-25T00:58:27.348Z,2.37
2019-05-25T01:00:56.481Z,2.30
2019-05-25T01:03:25.699Z,2.00
2019-05-25T01:05:54.791Z,1.87
2019-05-25T01:08:23.914Z,1.90
2019-05-25T01:10:53.008Z,1.87
2019-05-25T01:13:22.143Z,2.10
2019-05-25T01:15:51.260Z,2.00
2019-05-25T01:18:20.548Z,2.20
2019-05-25T01:20:50.147Z,1.90
2019-05-25T01:23:19.224Z,1.90
2019-05-25T01:25:48.690Z,2.50
2019-05-25T01:28:17.774Z,2.30
2019-05-25T01:30:47.222Z,2.53
2019-05-25T01:33:16.695Z,2.33
2019-05-25T01:35:45.754Z,2.60
2019-05-25T01:38:14.913Z,2.17
2019-05-25T01:40:43.720Z,2.27
2019-05-25T01:43:12.546Z,2.10
2019-05-25T01:45:41.095Z,2.10
2019-05-25T01:48:09.758Z,1.80
2019-05-25T01:50:38.304Z,2.30
2019-05-25T01:53:06.847Z,1.87
2019-05-25T01:55:35.410Z,3.50
2019-05-25T01:58:04.255Z,2.30
2019-05-25T02:00:33.143Z,2.20
2019-05-25T02:03:01.716Z,2.07
2019-05-25T02:05:30.540Z,1.70
2019-05-25T02:07:59.145Z,2.20
2019-05-25T02:10:28.195Z,2.50
2019-05-25T02:12:56.778Z,2.17
2019-05-25T02:15:25.695Z,2.27
2019-05-25T02:17:54.379Z,2.67
2019-05-25T02:20:22.930Z,2.50
2019-05-25T02:22:51.529Z,2.57
2019-05-25T02:25:20.501Z,2.30
2019-05-25T02:27:49.142Z,2.50
2019-05-25T02:30:17.995Z,2.43
2019-05-25T02:32:46.570Z,2.20
2019-05-25T02:35:22.119Z,2.17
2019-05-25T02:37:50.742Z,2.10
2019-05-25T02:40:19.313Z,2.30
2019-05-25T02:42:47.899Z,2.00
2019-05-25T02:45:16.491Z,2.10
2019-05-25T02:47:45.043Z,2.00
2019-05-25T02:50:13.579Z,2.13
2019-05-25T02:52:42.455Z,2.27
2019-05-25T02:55:11.606Z,2.00
2019-05-25T02:57:44.376Z,2.30
2019-05-25T03:00:13.507Z,2.13
2019-05-25T03:02:42.288Z,2.00
2019-05-25T03:05:12.249Z,2.10
2019-05-25T03:07:40.911Z,2.13
2019-05-25T03:10:09.542Z,2.20
2019-05-25T03:12:38.590Z,2.30
2019-05-25T03:15:07.442Z,2.33
2019-05-25T03:17:36.043Z,2.07
2019-05-25T03:20:04.950Z,2.70
2019-05-25T03:22:33.519Z,2.50
2019-05-25T03:25:02.180Z,2.73
2019-05-25T03:27:31.011Z,2.27
2019-05-25T03:29:59.631Z,2.37
2019-05-25T03:32:28.199Z,2.40
2019-05-25T03:34:57.240Z,2.70
2019-05-25T03:37:26.104Z,2.47
2019-05-25T03:39:54.696Z,2.93
2019-05-25T03:42:23.523Z,2.20
2019-05-25T03:44:52.348Z,2.40
2019-05-25T03:47:20.956Z,2.07
2019-05-25T03:49:49.887Z,2.27
2019-05-25T03:52:18.737Z,2.20
2019-05-25T03:54:47.278Z,2.33
2019-05-25T03:57:15.814Z,2.20
2019-05-25T03:59:44.410Z,2.33
2019-05-25T04:02:12.942Z,2.10
2019-05-25T04:04:41.591Z,2.17
2019-05-25T04:07:10.139Z,1.80
2019-05-25T04:09:38.679Z,2.30
2019-05-25T04:12:07.242Z,2.17
2019-05-25T04:14:36.088Z,2.23
2019-05-25T04:17:04.970Z,2.00
2019-05-25T04:19:33.518Z,1.87
2019-05-25T04:22:02.092Z,2.23
2019-05-25T04:24:30.706Z,2.40
2019-05-25T04:26:59.319Z,1.93
2019-05-25T04:29:32.371Z,2.33
2019-05-25T04:32:00.976Z,2.20
2019-05-25T04:34:29.528Z,2.10
2019-05-25T04:36:58.345Z,2.20
2019-05-25T04:39:27.175Z,2.57
2019-05-25T04:41:55.744Z,1.97
2019-05-25T04:44:28.595Z,2.50
2019-05-25T04:46:57.160Z,2.30
2019-05-25T04:49:25.709Z,2.00
2019-05-25T04:51:54.284Z,1.93
2019-05-25T04:54:22.983Z,2.10
2019-05-25T04:56:51.534Z,1.93
2019-05-25T04:59:20.099Z,1.70
2019-05-25T05:01:48.760Z,1.73
2019-05-25T05:04:17.665Z,2.10
2019-05-25T05:06:46.282Z,2.13
2019-05-25T05:09:15.399Z,1.50
2019-05-25T05:11:44.007Z,1.90
2019-05-25T05:14:12.571Z,1.83
2019-05-25T05:16:41.164Z,1.77
2019-05-25T05:19:10.018Z,2.00
2019-05-25T05:21:38.594Z,1.97
2019-05-25T05:24:07.144Z,2.20
2019-05-25T05:26:36.739Z,2.73
2019-05-25T05:29:05.340Z,1.80
2019-05-25T05:31:33.930Z,2.10
2019-05-25T05:34:02.467Z,2.10
2019-05-25T05:36:31.154Z,1.83
2019-05-25T05:38:59.724Z,2.07
2019-05-25T05:41:31.221Z,2.10
2019-05-25T05:44:00.898Z,2.00
2019-05-25T05:46:31.302Z,1.90
2019-05-25T05:49:00.651Z,2.50
2019-05-25T05:51:29.419Z,2.57
2019-05-25T05:53:59.271Z,2.83
2019-05-25T05:56:27.876Z,2.07
2019-05-25T05:58:56.436Z,2.30
2019-05-25T06:01:24.996Z,2.30
2019-05-25T06:03:53.583Z,2.00
2019-05-25T06:06:22.289Z,2.20
2019-05-25T06:08:50.895Z,3.80
2019-05-25T06:11:19.710Z,2.10
2019-05-25T06:13:48.275Z,1.70
2019-05-25T06:16:16.899Z,1.80
2019-05-25T06:18:45.497Z,2.13
2019-05-25T06:21:14.135Z,2.00
2019-05-25T06:23:42.707Z,1.80
2019-05-25T06:26:11.385Z,1.83
2019-05-25T06:28:40.062Z,2.23
2019-05-25T06:31:08.711Z,2.20
2019-05-25T06:33:37.251Z,2.27
2019-05-25T06:36:06.886Z,2.10
2019-05-25T06:38:35.775Z,1.90
2019-05-25T06:41:04.392Z,1.87
2019-05-25T06:43:33.488Z,2.30
2019-05-25T06:46:02.161Z,2.13
2019-05-25T06:48:30.974Z,1.60
2019-05-25T06:50:59.546Z,1.70
2019-05-25T06:53:28.186Z,2.10
2019-05-25T06:55:56.748Z,2.07
2019-05-25T06:58:25.398Z,1.70
2019-05-25T07:00:54.040Z,1.97
2019-05-25T07:03:22.667Z,2.37
2019-05-25T07:05:51.340Z,1.83
2019-05-25T07:08:20.163Z,1.80
2019-05-25T07:10:49.080Z,1.80
2019-05-25T07:13:17.726Z,1.90
2019-05-25T07:15:46.312Z,2.20
2019-05-25T07:18:15.191Z,2.47
2019-05-25T07:20:43.727Z,2.03
2019-05-25T07:23:12.291Z,2.03
2019-05-25T07:25:40.830Z,2.13
2019-05-25T07:28:09.394Z,2.30
2019-05-25T07:30:38.121Z,1.93
2019-05-25T07:33:06.975Z,2.10
2019-05-25T07:35:35.544Z,2.40
2019-05-25T07:38:04.373Z,2.30
2019-05-25T07:40:32.981Z,2.37
2019-05-25T07:43:01.782Z,2.30
2019-05-25T07:45:30.358Z,2.37
2019-05-25T07:47:59.070Z,2.57
2019-05-25T07:50:27.620Z,2.60
2019-05-25T07:52:56.266Z,2.33
2019-05-25T07:55:25.048Z,2.63
2019-05-25T07:57:53.597Z,2.73
2019-05-25T08:00:22.202Z,2.63
2019-05-25T08:02:54.051Z,2.43
2019-05-25T08:05:22.591Z,2.47
2019-05-25T08:07:51.191Z,2.60
2019-05-25T08:10:20.355Z,3.53
2019-05-25T08:12:48.934Z,3.10
2019-05-25T08:15:18.074Z,2.60
2019-05-25T08:17:46.629Z,2.67
2019-05-25T08:20:15.187Z,2.73
2019-05-25T08:22:43.763Z,3.33
2019-05-25T08:25:12.829Z,2.90
2019-05-25T08:27:41.380Z,3.23
2019-05-25T08:30:11.255Z,2.63
2019-05-25T08:32:39.859Z,2.97
2019-05-25T08:35:08.503Z,3.33
2019-05-25T08:37:37.077Z,3.17
2019-05-25T08:40:05.976Z,3.10
2019-05-25T08:42:34.515Z,3.03
2019-05-25T08:45:03.090Z,3.10
2019-05-25T08:47:31.795Z,3.30
2019-05-25T08:50:00.472Z,2.80
2019-05-25T08:52:29.070Z,3.40
2019-05-25T08:54:57.687Z,3.20
2019-05-25T08:57:26.309Z,3.13
2019-05-25T08:59:54.947Z,3.50
2019-05-25T09:02:23.554Z,2.87
2019-05-25T09:04:52.239Z,3.17
2019-05-25T09:07:20.879Z,3.77
2019-05-25T09:09:49.431Z,3.37
2019-05-25T09:12:18.380Z,3.70
2019-05-25T09:14:47.059Z,4.10
2019-05-25T09:17:15.964Z,4.20
2019-05-25T09:19:44.619Z,3.83
2019-05-25T09:22:13.499Z,3.40
2019-05-25T09:24:42.055Z,3.30
2019-05-25T09:27:10.872Z,3.20
2019-05-25T09:29:39.450Z,3.13
2019-05-25T09:32:08.276Z,3.50
2019-05-25T09:34:41.412Z,3.10
2019-05-25T09:37:10.011Z,2.73
2019-05-25T09:39:38.843Z,2.70
2019-05-25T09:42:07.520Z,3.10
2019-05-25T09:44:36.379Z,3.60
2019-05-25T09:47:05.236Z,2.60
2019-05-25T09:49:33.772Z,3.23
2019-05-25T09:52:02.620Z,2.63
2019-05-25T09:54:31.346Z,2.87
2019-05-25T09:57:00.110Z,3.00
2019-05-25T09:59:28.658Z,3.27
2019-05-25T10:01:57.323Z,2.90
2019-05-25T10:04:25.897Z,3.03
2019-05-25T10:06:54.447Z,3.07
2019-05-25T10:09:23.292Z,2.63
2019-05-25T10:11:52.123Z,2.77
2019-05-25T10:14:21.125Z,2.33
2019-05-25T10:16:49.711Z,2.40
2019-05-25T10:19:18.304Z,2.60
2019-05-25T10:21:47.023Z,2.73
2019-05-25T10:24:15.605Z,2.50
2019-05-25T10:26:44.310Z,2.20
2019-05-25T10:29:12.881Z,2.60
2019-05-25T10:31:41.580Z,2.40
2019-05-25T10:34:11.141Z,2.37
2019-05-25T10:36:39.739Z,2.27
2019-05-25T10:39:08.314Z,1.90
2019-05-25T10:41:36.886Z,2.13
2019-05-25T10:44:05.447Z,2.33
2019-05-25T10:46:34.290Z,2.87
2019-05-25T10:49:02.957Z,2.33
2019-05-25T10:51:31.567Z,2.27
2019-05-25T10:54:00.359Z,2.20
2019-05-25T10:56:29.274Z,1.93
2019-05-25T10:58:57.835Z,2.40
2019-05-25T11:01:26.572Z,2.00
2019-05-25T11:03:55.288Z,2.30
2019-05-25T11:06:23.911Z,1.80
2019-05-25T11:08:52.499Z,2.07
2019-05-25T11:11:21.716Z,2.63
2019-05-25T11:13:50.546Z,2.20
2019-05-25T11:16:19.373Z,2.50
2019-05-25T11:18:47.961Z,2.30
2019-05-25T11:21:20.429Z,2.23
2019-05-25T11:23:48.958Z,2.10
2019-05-25T11:26:17.756Z,2.03
2019-05-25T11:28:46.704Z,2.20
2019-05-25T11:31:15.244Z,2.30
2019-05-25T11:33:43.843Z,2.80
2019-05-25T11:36:19.450Z,2.20
2019-05-25T11:38:48.331Z,2.47
2019-05-25T11:41:16.892Z,2.17
2019-05-25T11:43:45.485Z,3.20
2019-05-25T11:46:14.354Z,2.00
2019-05-25T11:48:42.992Z,1.93
2019-05-25T11:51:11.600Z,3.57
2019-05-25T11:53:40.156Z,2.40
2019-05-25T11:56:08.703Z,2.40
2019-05-25T11:58:46.854Z,2.40
2019-05-25T12:01:07.769Z,2.10
2019-05-25T12:03:36.359Z,2.20
2019-05-25T12:06:04.903Z,2.33
2019-05-25T12:08:33.535Z,2.23
2019-05-25T12:11:02.119Z,2.17
2019-05-25T12:13:32.182Z,2.20
2019-05-25T12:16:00.959Z,2.30
2019-05-25T12:18:29.510Z,2.10
2019-05-25T12:20:58.107Z,2.40
2019-05-25T12:23:26.815Z,2.13
2019-05-25T12:25:55.416Z,2.10
2019-05-25T12:28:24.022Z,2.10
2019-05-25T12:30:52.615Z,2.30
2019-05-25T12:33:21.164Z,2.20
2019-05-25T12:35:49.942Z,2.97
2019-05-25T12:38:18.570Z,2.40
2019-05-25T12:40:53.665Z,2.70
2019-05-25T12:43:17.515Z,2.30
2019-05-25T12:45:46.129Z,2.70
2019-05-25T12:48:14.852Z,2.93
2019-05-25T12:50:43.487Z,2.50
2019-05-25T12:53:12.213Z,2.57
2019-05-25T12:55:41.139Z,2.17
2019-05-25T12:58:09.702Z,2.80
2019-05-25T13:00:38.314Z,2.50
2019-05-25T13:03:10.354Z,2.40
2019-05-25T13:05:37.307Z,1.83
2019-05-25T13:08:07.079Z,2.43
2019-05-25T13:10:35.614Z,2.50
2019-05-25T13:13:04.186Z,1.90
2019-05-25T13:15:32.746Z,1.83
2019-05-25T13:18:01.560Z,2.40
2019-05-25T13:20:30.127Z,2.00
2019-05-25T13:22:58.726Z,2.47
2019-05-25T13:25:27.311Z,2.13
2019-05-25T13:27:56.159Z,2.37
2019-05-25T13:30:25.039Z,2.30
2019-05-25T13:32:53.614Z,2.70
2019-05-25T13:35:22.232Z,2.47
2019-05-25T13:37:50.830Z,1.90
2019-05-25T13:40:19.403Z,1.70
2019-05-25T13:42:48.224Z,2.40
2019-05-25T13:45:16.946Z,2.23
2019-05-25T13:47:45.764Z,2.30
2019-05-25T13:50:14.586Z,2.23
2019-05-25T13:52:43.165Z,2.23
2019-05-25T13:55:12.231Z,2.23
2019-05-25T13:57:40.826Z,2.07
2019-05-25T14:00:10.488Z,2.40
2019-05-25T14:02:39.053Z,1.90
2019-05-25T14:05:07.879Z,2.13
2019-05-25T14:07:36.463Z,2.27
2019-05-25T14:10:05.437Z,2.10
2019-05-25T14:12:34.063Z,3.03
2019-05-25T14:15:02.782Z,1.80
2019-05-25T14:17:31.436Z,2.00
2019-05-25T14:20:00.030Z,2.17
2019-05-25T14:22:28.690Z,2.47
2019-05-25T14:24:57.284Z,2.73
2019-05-25T14:27:25.855Z,2.10
2019-05-25T14:29:54.543Z,1.73
2019-05-25T14:32:23.101Z,2.20
2019-05-25T14:34:51.680Z,1.80
2019-05-25T14:37:20.558Z,1.80
2019-05-25T14:39:49.155Z,2.00
2019-05-25T14:42:17.741Z,2.00
2019-05-25T14:44:46.375Z,1.97
2019-05-25T14:47:14.915Z,1.80
2019-05-25T14:49:43.543Z,2.00
2019-05-25T14:52:12.131Z,2.30
2019-05-25T14:54:44.015Z,2.13
2019-05-25T14:57:12.703Z,2.20
2019-05-25T14:59:41.299Z,1.73
2019-05-25T15:02:10.220Z,2.70
2019-05-25T15:04:38.944Z,1.90
2019-05-25T15:07:07.828Z,1.70
2019-05-25T15:09:36.398Z,1.60
2019-05-25T15:12:04.959Z,1.80
2019-05-25T15:14:33.561Z,2.50
2019-05-25T15:17:02.191Z,2.10
2019-05-25T15:19:30.783Z,2.47
2019-05-25T15:21:59.420Z,2.00
2019-05-25T15:24:27.992Z,1.87
2019-05-25T15:26:56.908Z,1.80
2019-05-25T15:29:25.468Z,1.90
2019-05-25T15:31:54.018Z,1.70
2019-05-25T15:34:22.635Z,1.87
2019-05-25T15:36:51.225Z,1.80
2019-05-25T15:39:19.785Z,2.10
2019-05-25T15:41:48.437Z,2.10
2019-05-25T15:44:17.051Z,2.20
2019-05-25T15:46:45.960Z,1.90
2019-05-25T15:49:14.699Z,1.97
2019-05-25T15:51:43.583Z,2.07
2019-05-25T15:54:12.130Z,1.73
2019-05-25T15:56:40.747Z,1.97
2019-05-25T15:59:09.395Z,1.60
2019-05-25T16:01:37.954Z,1.90
2019-05-25T16:04:06.526Z,1.77
2019-05-25T16:06:35.387Z,1.93
2019-05-25T16:09:04.979Z,2.00
2019-05-25T16:11:37.220Z,1.60
2019-05-25T16:14:07.776Z,4.10
2019-05-25T16:16:36.517Z,1.80
2019-05-25T16:19:05.078Z,2.07
2019-05-25T16:21:33.923Z,2.00
2019-05-25T16:24:02.543Z,1.90
2019-05-25T16:26:45.435Z,1.90
2019-05-25T16:29:04.322Z,2.10
2019-05-25T16:31:32.883Z,1.77
2019-05-25T16:34:01.440Z,2.00
2019-05-25T16:36:30.272Z,2.50
2019-05-25T16:38:58.879Z,2.30
2019-05-25T16:41:35.730Z,2.13
2019-05-25T16:44:04.611Z,2.23
2019-05-25T16:46:33.167Z,2.17
2019-05-25T16:49:01.991Z,1.97
2019-05-25T16:51:30.539Z,1.87
2019-05-25T16:53:59.075Z,1.77
2019-05-25T16:56:31.128Z,1.93
2019-05-25T16:58:59.734Z,2.60
2019-05-25T17:01:46.587Z,1.77
2019-05-25T17:03:58.660Z,1.90
2019-05-25T17:06:27.237Z,2.27
2019-05-25T17:08:56.481Z,1.90
2019-05-25T17:11:25.373Z,2.00
2019-05-25T17:13:53.961Z,1.87
2019-05-25T17:16:22.519Z,1.97
2019-05-25T17:18:51.364Z,2.03
2019-05-25T17:21:19.979Z,2.40
2019-05-25T17:23:48.678Z,1.80
2019-05-25T17:26:17.279Z,1.73
2019-05-25T17:28:45.922Z,2.00
2019-05-25T17:31:14.469Z,1.77
2019-05-25T17:33:46.251Z,1.80
2019-05-25T17:36:13.501Z,1.80
2019-05-25T17:38:42.147Z,1.70
2019-05-25T17:41:10.716Z,1.80
2019-05-25T17:43:39.272Z,1.50
2019-05-25T17:46:08.091Z,2.10
2019-05-25T17:48:36.667Z,1.87
2019-05-25T17:51:05.195Z,2.30
2019-05-25T17:53:33.771Z,2.10
2019-05-25T17:56:02.350Z,1.80
2019-05-25T17:58:31.171Z,2.00
2019-05-25T18:00:59.863Z,2.23
2019-05-25T18:03:28.422Z,1.83
2019-05-25T18:05:57.004Z,2.47
2019-05-25T18:08:25.575Z,1.97
2019-05-25T18:10:54.820Z,2.00
2019-05-25T18:13:23.567Z,2.00
2019-05-25T18:15:52.181Z,1.80
2019-05-25T18:18:20.730Z,2.00
2019-05-25T18:20:49.739Z,2.20
2019-05-25T18:23:18.925Z,2.10
2019-05-25T18:25:47.492Z,2.00
2019-05-25T18:28:16.644Z,2.13
2019-05-25T18:30:45.195Z,1.93
2019-05-25T18:33:13.861Z,1.60
2019-05-25T18:35:42.479Z,2.43
2019-05-25T18:38:11.299Z,2.50
2019-05-25T18:40:39.862Z,1.90
2019-05-25T18:43:08.407Z,1.83
2019-05-25T18:45:36.993Z,2.27
2019-05-25T18:48:05.539Z,2.37
2019-05-25T18:50:34.082Z,2.10
2019-05-25T18:53:02.767Z,2.00
2019-05-25T18:55:31.294Z,2.60
2019-05-25T18:57:59.842Z,2.30
2019-05-25T19:00:28.689Z,3.23
2019-05-25T19:02:57.320Z,2.00
2019-05-25T19:05:25.863Z,2.10
2019-05-25T19:07:54.431Z,2.30
2019-05-25T19:10:23.101Z,2.30
2019-05-25T19:12:51.651Z,2.07
2019-05-25T19:15:20.379Z,2.40
2019-05-25T19:17:48.987Z,2.40
2019-05-25T19:20:20.888Z,2.57
2019-05-25T19:22:48.025Z,2.67
2019-05-25T19:25:16.899Z,2.57
2019-05-25T19:27:45.434Z,2.40
2019-05-25T19:30:14.279Z,2.40
2019-05-25T19:32:42.945Z,2.50
2019-05-25T19:35:11.912Z,2.93
2019-05-25T19:37:42.400Z,2.83
2019-05-25T19:40:10.869Z,2.37
2019-05-25T19:42:39.413Z,3.40
2019-05-25T19:45:08.224Z,3.30
2019-05-25T19:47:36.815Z,2.77
2019-05-25T19:50:05.663Z,3.03
2019-05-25T19:52:34.321Z,3.33
2019-05-25T19:55:02.882Z,2.90
2019-05-25T19:57:31.523Z,2.77
2019-05-25T20:00:00.068Z,2.67
2019-05-25T20:02:28.654Z,2.57
2019-05-25T20:04:57.303Z,2.80
2019-05-25T20:07:25.859Z,3.20
2019-05-25T20:09:54.438Z,3.47
2019-05-25T20:12:23.255Z,3.10
2019-05-25T20:14:55.649Z,2.90
2019-05-25T20:17:24.322Z,3.07
2019-05-25T20:19:52.967Z,3.00
2019-05-25T20:22:21.531Z,2.80
2019-05-25T20:24:50.087Z,3.83
2019-05-25T20:27:18.659Z,3.87
2019-05-25T20:29:47.221Z,3.70
2019-05-25T20:32:15.759Z,3.43
2019-05-25T20:34:45.856Z,3.00
2019-05-25T20:37:14.829Z,2.97
2019-05-25T20:39:43.478Z,3.77
2019-05-25T20:42:14.962Z,3.03
2019-05-25T20:44:42.301Z,3.53
2019-05-25T20:47:10.978Z,3.07
2019-05-25T20:49:39.592Z,3.03
2019-05-25T20:52:08.232Z,3.20
2019-05-25T20:54:37.134Z,2.77
2019-05-25T20:57:05.674Z,3.10
2019-05-25T20:59:34.238Z,3.00
2019-05-25T21:02:02.880Z,2.70
2019-05-25T21:04:31.454Z,3.60
2019-05-25T21:07:00.061Z,3.77
2019-05-25T21:09:28.675Z,2.73
2019-05-25T21:11:57.288Z,3.00
2019-05-25T21:14:25.875Z,3.10
2019-05-25T21:16:54.424Z,3.13
2019-05-25T21:19:23.055Z,2.70
2019-05-25T21:21:51.711Z,2.80
2019-05-25T21:24:20.279Z,3.30
2019-05-25T21:26:48.926Z,3.10
2019-05-25T21:29:17.474Z,3.43
2019-05-25T21:31:46.016Z,2.90
2019-05-25T21:34:14.596Z,2.83
2019-05-25T21:36:43.451Z,3.10
2019-05-25T21:39:12.104Z,2.90
2019-05-25T21:41:40.928Z,2.97
2019-05-25T21:44:09.797Z,2.93
2019-05-25T21:46:41.144Z,2.90
2019-05-25T21:49:09.771Z,3.07
2019-05-25T21:51:38.395Z,3.57
2019-05-25T21:54:06.963Z,3.30
2019-05-25T21:56:35.776Z,3.00
2019-05-25T21:59:04.614Z,2.80
2019-05-25T22:01:37.531Z,3.33
2019-05-25T22:04:06.079Z,3.73
2019-05-25T22:06:34.644Z,3.17
2019-05-25T22:09:04.187Z,2.93
2019-05-25T22:11:32.736Z,3.80
2019-05-25T22:14:01.295Z,3.10
2019-05-25T22:16:29.873Z,3.10
2019-05-25T22:18:58.501Z,3.60
2019-05-25T22:21:27.631Z,3.30
2019-05-25T22:23:56.328Z,3.13
2019-05-25T22:26:24.880Z,3.70
2019-05-25T22:28:53.459Z,3.33
2019-05-25T22:31:22.302Z,3.60
2019-05-25T22:33:50.838Z,3.37
2019-05-25T22:36:19.420Z,3.47
2019-05-25T22:38:48.019Z,4.30
2019-05-25T22:41:19.881Z,3.27
2019-05-25T22:43:46.935Z,3.23
2019-05-25T22:46:15.506Z,3.23
2019-05-25T22:48:44.060Z,2.93
2019-05-25T22:51:12.636Z,3.70
2019-05-25T22:53:41.176Z,3.17
2019-05-25T22:56:09.742Z,3.33
2019-05-25T22:58:38.313Z,3.40
2019-05-25T23:01:07.238Z,2.77
2019-05-25T23:03:35.818Z,3.17
2019-05-25T23:06:04.379Z,3.47
2019-05-25T23:08:32.964Z,3.13
2019-05-25T23:11:01.527Z,3.07
2019-05-25T23:13:30.065Z,3.20
2019-05-25T23:15:58.936Z,3.73
2019-05-25T23:18:27.476Z,3.40
2019-05-25T23:20:56.321Z,3.27
2019-05-25T23:23:24.867Z,3.20
2019-05-25T23:25:53.431Z,3.47
2019-05-25T23:28:22.003Z,2.90
2019-05-25T23:30:50.863Z,3.23
2019-05-25T23:33:19.543Z,3.13
2019-05-25T23:35:48.129Z,2.93
2019-05-25T23:38:16.686Z,3.07
2019-05-25T23:40:45.302Z,3.30
2019-05-25T23:43:13.856Z,3.00
2019-05-25T23:45:42.407Z,3.20
2019-05-25T23:48:10.971Z,3.10
2019-05-25T23:50:39.508Z,3.07
2019-05-25T23:53:08.052Z,2.80
2019-05-25T23:55:36.642Z,3.23
2019-05-25T23:58:05.192Z,3.23
